createdAt,value
2023-03-06T00:00:28.457Z,9.81
2023-03-06T00:02:55.034Z,9.77
2023-03-06T00:05:24.190Z,9.74
2023-03-06T00:08:06.927Z,9.74
2023-03-06T00:10:33.781Z,9.74
2023-03-06T00:13:11.277Z,9.77
2023-03-06T00:15:37.905Z,9.78
2023-03-06T00:18:05.702Z,9.77
2023-03-06T00:20:33.504Z,9.77
2023-03-06T00:23:00.343Z,9.81
2023-03-06T00:25:27.096Z,9.85
2023-03-06T00:27:56.371Z,9.92
2023-03-06T00:30:24.603Z,9.96
2023-03-06T00:32:53.005Z,9.99
2023-03-06T00:35:19.916Z,9.94
2023-03-06T00:37:46.620Z,9.84
2023-03-06T00:40:16.364Z,9.81
2023-03-06T00:42:43.735Z,9.74
2023-03-06T00:45:13.480Z,9.72
2023-03-06T00:47:43.261Z,9.71
2023-03-06T00:50:11.220Z,9.74
2023-03-06T00:52:37.915Z,9.79
2023-03-06T00:55:05.633Z,9.84
2023-03-06T00:57:32.185Z,9.85
2023-03-06T00:59:58.955Z,9.86
2023-03-06T01:02:25.746Z,9.88
2023-03-06T01:04:52.387Z,9.88
2023-03-06T01:07:21.269Z,9.87
2023-03-06T01:09:47.911Z,9.87
2023-03-06T01:12:17.538Z,9.90
2023-03-06T01:14:45.719Z,9.96
2023-03-06T01:17:13.395Z,9.98
2023-03-06T01:19:40.019Z,10.00
2023-03-06T01:22:06.681Z,10.02
2023-03-06T01:24:33.347Z,10.03
2023-03-06T01:27:03.154Z,10.08
2023-03-06T01:29:29.823Z,10.12
2023-03-06T01:31:56.424Z,10.14
2023-03-06T01:34:24.313Z,10.14
2023-03-06T01:36:50.946Z,10.13
2023-03-06T01:39:17.537Z,10.10
2023-03-06T01:41:45.772Z,10.04
2023-03-06T01:44:13.857Z,10.03
2023-03-06T01:46:46.739Z,10.02
2023-03-06T01:49:21.190Z,9.99
2023-03-06T01:51:57.907Z,9.93
2023-03-06T01:54:27.714Z,9.91
2023-03-06T01:57:01.169Z,9.91
2023-03-06T01:59:28.825Z,9.92
2023-03-06T02:01:56.344Z,9.92
2023-03-06T02:04:23.745Z,9.91
2023-03-06T02:06:51.036Z,9.95
2023-03-06T02:09:17.776Z,9.97
2023-03-06T02:11:46.376Z,9.97
2023-03-06T02:14:17.508Z,9.93
2023-03-06T02:16:44.295Z,9.95
2023-03-06T02:19:37.866Z,10.00
2023-03-06T02:22:05.577Z,10.07
2023-03-06T02:25:20.395Z,10.12
2023-03-06T02:27:48.286Z,10.12
2023-03-06T02:30:16.978Z,10.12
2023-03-06T02:32:43.609Z,10.13
2023-03-06T02:35:19.189Z,10.14
2023-03-06T02:37:46.940Z,10.14
2023-03-06T02:40:14.856Z,10.10
2023-03-06T02:42:56.607Z,10.08
2023-03-06T02:45:29.970Z,10.04
2023-03-06T02:47:56.608Z,9.95
2023-03-06T02:50:23.309Z,9.91
2023-03-06T02:52:49.946Z,9.89
2023-03-06T02:55:16.597Z,9.82
2023-03-06T02:57:43.212Z,9.78
2023-03-06T03:00:10.602Z,9.75
2023-03-06T03:02:37.374Z,9.75
2023-03-06T03:05:05.858Z,9.74
2023-03-06T03:07:34.962Z,9.73
2023-03-06T03:10:01.869Z,9.71
2023-03-06T03:12:28.720Z,9.72
2023-03-06T03:14:56.378Z,9.72
2023-03-06T03:17:23.609Z,9.72
2023-03-06T03:19:50.596Z,9.69
2023-03-06T03:22:18.046Z,9.69
2023-03-06T03:24:44.660Z,9.67
2023-03-06T03:27:17.825Z,9.68
2023-03-06T03:29:45.589Z,9.68
2023-03-06T03:32:12.210Z,9.68
2023-03-06T03:34:38.914Z,9.67
2023-03-06T03:37:05.863Z,9.69
2023-03-06T03:39:35.606Z,9.65
2023-03-06T03:42:02.234Z,9.64
2023-03-06T03:47:10.867Z,9.67
2023-03-06T03:49:46.338Z,9.68
2023-03-06T03:52:12.894Z,9.64
2023-03-06T03:54:39.648Z,9.59
2023-03-06T03:57:06.242Z,9.52
2023-03-06T03:59:32.942Z,9.48
2023-03-06T04:01:59.675Z,9.44
2023-03-06T04:04:26.676Z,9.39
2023-03-06T04:06:53.502Z,9.33
2023-03-06T04:09:20.132Z,9.29
2023-03-06T04:11:47.894Z,9.30
2023-03-06T04:14:14.531Z,9.30
2023-03-06T04:16:41.255Z,9.30
2023-03-06T04:19:07.848Z,9.28
2023-03-06T04:21:34.440Z,9.26
2023-03-06T04:24:01.009Z,9.25
2023-03-06T04:26:27.557Z,9.24
2023-03-06T04:28:55.650Z,9.24
2023-03-06T04:31:22.362Z,9.18
2023-03-06T04:33:49.058Z,9.11
2023-03-06T04:36:24.432Z,9.04
2023-03-06T04:38:51.083Z,8.97
2023-03-06T04:41:17.882Z,8.99
2023-03-06T04:43:44.760Z,8.95
2023-03-06T04:46:12.453Z,8.90
2023-03-06T04:48:39.104Z,8.87
2023-03-06T04:51:06.231Z,8.86
2023-03-06T04:53:32.953Z,8.87
2023-03-06T04:56:00.020Z,8.87
2023-03-06T04:58:26.730Z,8.87
2023-03-06T05:00:53.407Z,8.83
2023-03-06T05:03:20.033Z,8.80
2023-03-06T05:05:47.062Z,8.78
2023-03-06T05:08:18.338Z,8.76
2023-03-06T05:10:45.947Z,8.73
2023-03-06T05:13:12.658Z,8.73
2023-03-06T05:15:42.197Z,8.71
2023-03-06T05:18:09.047Z,8.68
2023-03-06T05:20:35.762Z,8.61
2023-03-06T05:23:02.469Z,8.59
2023-03-06T05:25:29.036Z,8.60
2023-03-06T05:27:58.599Z,8.57
2023-03-06T05:30:25.793Z,8.56
2023-03-06T05:32:53.218Z,8.54
2023-03-06T05:35:23.136Z,8.51
2023-03-06T05:37:49.980Z,8.45
2023-03-06T05:40:17.742Z,8.41
2023-03-06T05:42:44.580Z,8.36
2023-03-06T05:45:11.902Z,8.30
2023-03-06T05:47:38.599Z,8.32
2023-03-06T05:50:05.468Z,8.39
2023-03-06T05:52:32.288Z,8.42
2023-03-06T05:54:58.857Z,8.47
2023-03-06T05:57:25.805Z,8.49
2023-03-06T05:59:52.527Z,8.42
2023-03-06T06:02:19.757Z,8.34
2023-03-06T06:04:46.342Z,8.30
2023-03-06T06:07:14.713Z,8.29
2023-03-06T06:09:43.392Z,8.23
2023-03-06T06:12:09.945Z,8.18
2023-03-06T06:14:36.639Z,8.17
2023-03-06T06:17:06.014Z,8.18
2023-03-06T06:19:32.796Z,8.17
2023-03-06T06:22:03.700Z,8.20
2023-03-06T06:24:31.420Z,8.23
2023-03-06T06:26:58.884Z,8.27
2023-03-06T06:29:27.200Z,8.29
2023-03-06T06:31:55.948Z,8.29
2023-03-06T06:34:23.371Z,8.28
2023-03-06T06:36:53.260Z,8.27
2023-03-06T06:39:23.885Z,8.28
2023-03-06T06:42:10.431Z,8.31
2023-03-06T06:44:44.435Z,8.34
2023-03-06T06:47:26.497Z,8.41
2023-03-06T06:49:55.296Z,8.48
2023-03-06T06:52:23.696Z,8.56
2023-03-06T06:54:52.400Z,8.63
2023-03-06T06:57:19.227Z,8.71
2023-03-06T06:59:45.865Z,8.79
2023-03-06T07:02:17.636Z,8.82
2023-03-06T07:05:00.659Z,8.85
2023-03-06T07:07:32.887Z,8.90
2023-03-06T07:09:59.696Z,8.95
2023-03-06T07:12:26.838Z,9.00
2023-03-06T07:14:55.996Z,9.05
2023-03-06T07:17:22.703Z,9.11
2023-03-06T07:19:49.777Z,9.14
2023-03-06T07:22:21.294Z,9.18
2023-03-06T07:24:48.277Z,9.18
2023-03-06T07:27:15.119Z,9.20
2023-03-06T07:29:45.063Z,9.26
2023-03-06T07:32:12.172Z,9.29
2023-03-06T07:34:39.187Z,9.31
2023-03-06T07:39:46.513Z,9.42
2023-03-06T07:42:14.053Z,9.47
2023-03-06T07:44:40.889Z,9.53
2023-03-06T07:47:10.127Z,9.59
2023-03-06T07:49:39.494Z,9.65
2023-03-06T07:52:06.302Z,9.75
2023-03-06T07:54:35.268Z,9.87
2023-03-06T07:57:03.043Z,9.96
2023-03-06T07:59:29.927Z,10.06
2023-03-06T08:01:57.762Z,10.13
2023-03-06T08:04:24.478Z,10.25
2023-03-06T08:07:11.913Z,10.39
2023-03-06T08:09:38.544Z,10.46
2023-03-06T08:12:05.458Z,10.54
2023-03-06T08:14:35.977Z,10.64
2023-03-06T08:17:03.781Z,10.74
2023-03-06T08:19:30.464Z,10.87
2023-03-06T08:21:57.218Z,11.00
2023-03-06T08:24:23.960Z,11.13
2023-03-06T08:26:51.572Z,11.27
2023-03-06T08:29:18.271Z,11.42
2023-03-06T08:31:46.533Z,11.57
2023-03-06T08:34:16.434Z,11.74
2023-03-06T08:36:43.277Z,11.88
2023-03-06T08:39:10.046Z,12.00
2023-03-06T08:41:38.342Z,12.14
2023-03-06T08:44:09.214Z,12.29
2023-03-06T08:46:35.856Z,12.43
2023-03-06T08:49:02.756Z,12.53
2023-03-06T08:51:29.565Z,12.66
2023-03-06T08:53:56.748Z,12.71
2023-03-06T08:56:31.701Z,12.82
2023-03-06T08:59:03.736Z,12.92
2023-03-06T09:01:32.808Z,13.00
2023-03-06T09:04:01.897Z,13.08
2023-03-06T09:06:34.192Z,13.15
2023-03-06T09:09:01.014Z,13.24
2023-03-06T09:11:28.807Z,13.31
2023-03-06T09:13:56.452Z,13.38
2023-03-06T09:16:24.116Z,13.44
2023-03-06T09:18:52.986Z,13.49
2023-03-06T09:21:21.579Z,13.52
2023-03-06T09:23:51.389Z,13.55
2023-03-06T09:26:18.681Z,13.58
2023-03-06T09:28:45.306Z,13.63
2023-03-06T09:31:15.804Z,13.71
2023-03-06T09:33:42.861Z,13.76
2023-03-06T09:36:14.618Z,13.83
2023-03-06T09:38:41.208Z,13.89
2023-03-06T09:41:32.029Z,13.94
2023-03-06T09:44:14.711Z,13.96
2023-03-06T09:47:17.426Z,13.99
2023-03-06T09:49:55.829Z,14.04
2023-03-06T09:52:49.432Z,14.08
2023-03-06T09:55:15.965Z,14.11
2023-03-06T09:57:52.567Z,14.17
2023-03-06T10:00:25.160Z,14.19
2023-03-06T10:03:06.644Z,14.23
2023-03-06T10:05:38.450Z,14.27
2023-03-06T10:08:51.536Z,14.30
2023-03-06T10:11:38.299Z,14.34
2023-03-06T10:14:35.845Z,14.35
2023-03-06T10:17:02.839Z,14.35
2023-03-06T10:19:34.824Z,14.37
2023-03-06T10:22:01.322Z,14.36
2023-03-06T10:24:49.456Z,14.40
2023-03-06T10:27:38.009Z,14.44
2023-03-06T10:30:10.925Z,14.46
2023-03-06T10:32:49.022Z,14.49
2023-03-06T10:35:20.056Z,14.51
2023-03-06T10:37:46.751Z,14.53
2023-03-06T10:40:17.272Z,14.57
2023-03-06T10:42:44.076Z,14.57
2023-03-06T10:45:14.882Z,14.56
2023-03-06T10:47:42.089Z,14.55
2023-03-06T10:50:22.686Z,14.57
2023-03-06T10:53:05.841Z,14.59
2023-03-06T10:55:36.437Z,14.62
2023-03-06T10:58:35.749Z,14.66
2023-03-06T11:01:17.348Z,14.68
2023-03-06T11:03:44.223Z,14.73
2023-03-06T11:06:37.146Z,14.78
2023-03-06T11:09:24.467Z,14.78
2023-03-06T11:12:22.680Z,14.79
2023-03-06T11:15:07.649Z,14.84
2023-03-06T11:17:55.360Z,14.88
2023-03-06T11:20:41.262Z,14.89
2023-03-06T11:23:42.589Z,14.89
2023-03-06T11:26:20.134Z,14.90
2023-03-06T11:29:13.530Z,14.90
2023-03-06T11:32:08.479Z,14.91
2023-03-06T11:34:58.109Z,14.93
2023-03-06T11:37:48.235Z,14.97
2023-03-06T11:40:24.024Z,15.00
2023-03-06T11:43:05.942Z,15.04
2023-03-06T11:45:52.493Z,15.05
2023-03-06T11:48:26.235Z,15.08
2023-03-06T11:51:15.110Z,15.12
2023-03-06T11:53:41.890Z,15.16
2023-03-06T11:56:32.293Z,15.16
2023-03-06T11:59:08.033Z,15.15
2023-03-06T12:01:49.668Z,15.15
2023-03-06T12:04:46.481Z,15.17
2023-03-06T12:07:21.961Z,15.13
2023-03-06T12:09:56.136Z,15.13
2023-03-06T12:12:38.184Z,15.16
2023-03-06T12:15:08.081Z,15.19
2023-03-06T12:17:51.511Z,15.21
2023-03-06T12:20:39.362Z,15.21
2023-03-06T12:23:24.523Z,15.20
2023-03-06T12:26:29.842Z,15.17
2023-03-06T12:29:30.421Z,15.15
2023-03-06T12:32:22.068Z,15.15
2023-03-06T12:34:57.558Z,15.15
2023-03-06T12:37:32.038Z,15.17
2023-03-06T12:40:16.774Z,15.17
2023-03-06T12:42:58.640Z,15.13
2023-03-06T12:45:33.892Z,15.10
2023-03-06T12:48:06.080Z,15.06
2023-03-06T12:50:38.113Z,15.04
2023-03-06T12:53:14.589Z,15.04
2023-03-06T12:55:48.720Z,15.04
2023-03-06T12:58:57.240Z,15.07
2023-03-06T13:01:51.448Z,15.08
2023-03-06T13:04:32.296Z,15.08
2023-03-06T13:07:01.944Z,15.07
2023-03-06T13:10:13.313Z,15.05
2023-03-06T13:13:14.027Z,15.05
2023-03-06T13:16:33.290Z,15.02
2023-03-06T13:19:19.025Z,14.99
2023-03-06T13:24:44.021Z,14.94
2023-03-06T13:27:13.234Z,14.92
2023-03-06T13:29:39.786Z,14.88
2023-03-06T13:32:16.669Z,14.86
2023-03-06T13:34:48.557Z,14.87
2023-03-06T13:37:23.698Z,14.86
2023-03-06T13:40:40.653Z,14.86
2023-03-06T13:43:09.947Z,14.88
2023-03-06T13:45:45.071Z,14.87
2023-03-06T13:48:45.062Z,14.85
2023-03-06T13:51:22.920Z,14.85
2023-03-06T13:54:13.951Z,14.84
2023-03-06T13:57:15.222Z,14.82
2023-03-06T14:00:19.389Z,14.78
2023-03-06T14:03:01.134Z,14.72
2023-03-06T14:05:48.397Z,14.69
2023-03-06T14:08:21.980Z,14.67
2023-03-06T14:10:59.825Z,14.64
2023-03-06T14:13:35.191Z,14.64
2023-03-06T14:16:13.274Z,14.60
2023-03-06T14:18:51.110Z,14.58
2023-03-06T14:21:34.876Z,14.55
2023-03-06T14:24:03.633Z,14.53
2023-03-06T14:26:39.544Z,14.53
2023-03-06T14:29:21.420Z,14.52
2023-03-06T14:31:59.288Z,14.50
2023-03-06T14:34:31.319Z,14.50
2023-03-06T14:37:05.490Z,14.48
2023-03-06T14:39:39.810Z,14.47
2023-03-06T14:42:17.080Z,14.46
2023-03-06T14:44:44.317Z,14.43
2023-03-06T14:47:27.410Z,14.40
2023-03-06T14:50:19.328Z,14.36
2023-03-06T14:52:46.165Z,14.31
2023-03-06T14:55:19.139Z,14.29
2023-03-06T14:57:48.176Z,14.25
2023-03-06T15:00:22.986Z,14.20
2023-03-06T15:02:51.740Z,14.17
2023-03-06T15:05:24.921Z,14.15
2023-03-06T15:07:52.858Z,14.10
2023-03-06T15:10:31.291Z,14.08
2023-03-06T15:13:25.910Z,14.06
2023-03-06T15:16:07.068Z,14.03
2023-03-06T15:18:39.253Z,14.01
2023-03-06T15:21:07.844Z,14.01
2023-03-06T15:23:40.215Z,14.00
2023-03-06T15:26:29.238Z,13.99
2023-03-06T15:29:09.073Z,13.96
2023-03-06T15:31:47.300Z,13.92
2023-03-06T15:34:16.125Z,13.91
2023-03-06T15:36:47.365Z,13.89
2023-03-06T15:39:39.857Z,13.86
2023-03-06T15:42:24.981Z,13.83
2023-03-06T15:44:56.233Z,13.79
2023-03-06T15:47:23.727Z,13.76
2023-03-06T15:49:53.217Z,13.74
2023-03-06T15:52:21.700Z,13.71
2023-03-06T15:54:48.403Z,13.71
2023-03-06T15:57:28.270Z,13.69
2023-03-06T15:59:56.257Z,13.69
2023-03-06T16:02:25.626Z,13.69
2023-03-06T16:04:52.516Z,13.67
2023-03-06T16:07:21.865Z,13.66
2023-03-06T16:09:48.546Z,13.64
2023-03-06T16:12:16.190Z,13.61
2023-03-06T16:14:42.933Z,13.58
2023-03-06T16:17:12.454Z,13.56
2023-03-06T16:19:39.532Z,13.53
2023-03-06T16:22:06.298Z,13.52
2023-03-06T16:24:34.362Z,13.49
2023-03-06T16:27:01.916Z,13.46
2023-03-06T16:29:29.441Z,13.44
2023-03-06T16:31:57.436Z,13.43
2023-03-06T16:34:24.334Z,13.40
2023-03-06T16:36:53.615Z,13.37
2023-03-06T16:39:22.273Z,13.35
2023-03-06T16:41:49.706Z,13.33
2023-03-06T16:44:16.637Z,13.30
2023-03-06T16:46:48.346Z,13.28
2023-03-06T16:49:23.734Z,13.25
2023-03-06T16:51:51.066Z,13.22
2023-03-06T16:54:17.954Z,13.21
2023-03-06T16:56:45.124Z,13.18
2023-03-06T16:59:12.521Z,13.15
2023-03-06T17:01:40.741Z,13.13
2023-03-06T17:04:07.768Z,13.11
2023-03-06T17:06:34.462Z,13.08
2023-03-06T17:09:01.067Z,13.05
2023-03-06T17:11:27.770Z,13.01
2023-03-06T17:13:55.328Z,12.97
2023-03-06T17:16:22.288Z,12.95
2023-03-06T17:18:49.647Z,12.92
2023-03-06T17:21:16.769Z,12.91
2023-03-06T17:23:44.585Z,12.88
2023-03-06T17:26:20.033Z,12.88
2023-03-06T17:28:47.461Z,12.86
2023-03-06T17:31:18.366Z,12.83
2023-03-06T17:33:45.513Z,12.83
2023-03-06T17:36:14.486Z,12.81
2023-03-06T17:38:41.845Z,12.80
2023-03-06T17:41:11.814Z,12.80
2023-03-06T17:43:39.470Z,12.78
2023-03-06T17:46:08.451Z,12.78
2023-03-06T17:48:35.681Z,12.76
2023-03-06T17:51:03.427Z,12.75
2023-03-06T17:53:30.149Z,12.74
2023-03-06T17:55:59.775Z,12.73
2023-03-06T17:58:27.075Z,12.71
2023-03-06T18:00:53.851Z,12.71
2023-03-06T18:03:20.776Z,12.71
2023-03-06T18:05:47.310Z,12.69
2023-03-06T18:08:13.888Z,12.68
2023-03-06T18:10:41.576Z,12.67
2023-03-06T18:13:09.212Z,12.67
2023-03-06T18:15:40.066Z,12.65
2023-03-06T18:18:07.664Z,12.64
2023-03-06T18:20:34.919Z,12.63
2023-03-06T18:23:03.697Z,12.62
2023-03-06T18:25:31.678Z,12.61
2023-03-06T18:27:58.721Z,12.61
2023-03-06T18:30:25.687Z,12.61
2023-03-06T18:32:52.541Z,12.61
2023-03-06T18:35:19.290Z,12.60
2023-03-06T18:37:46.011Z,12.59
2023-03-06T18:40:13.134Z,12.58
2023-03-06T18:42:39.723Z,12.56
2023-03-06T18:45:07.013Z,12.54
2023-03-06T18:47:33.815Z,12.53
2023-03-06T18:50:00.426Z,12.52
2023-03-06T18:52:27.085Z,12.53
2023-03-06T18:54:53.756Z,12.49
2023-03-06T18:57:20.564Z,12.44
2023-03-06T18:59:50.323Z,12.41
2023-03-06T19:02:17.336Z,12.38
2023-03-06T19:04:44.135Z,12.39
2023-03-06T19:07:13.263Z,12.38
2023-03-06T19:09:43.978Z,12.35
2023-03-06T19:12:16.193Z,12.32
2023-03-06T19:14:48.504Z,12.29
2023-03-06T19:17:15.449Z,12.26
2023-03-06T19:19:42.538Z,12.27
2023-03-06T19:22:10.234Z,12.24
2023-03-06T19:24:36.859Z,12.24
2023-03-06T19:27:03.403Z,12.25
2023-03-06T19:29:29.964Z,12.22
2023-03-06T19:31:57.536Z,12.19
2023-03-06T19:34:24.283Z,12.18
2023-03-06T19:36:54.109Z,12.17
2023-03-06T19:39:20.828Z,12.13
2023-03-06T19:41:47.921Z,12.13
2023-03-06T19:44:16.328Z,12.13
2023-03-06T19:46:43.741Z,12.11
2023-03-06T19:49:16.950Z,12.09
2023-03-06T19:51:43.969Z,12.08
2023-03-06T19:54:12.216Z,12.05
2023-03-06T19:56:38.940Z,12.05
2023-03-06T19:59:05.648Z,12.02
2023-03-06T20:01:34.289Z,12.02
2023-03-06T20:04:01.434Z,12.03
2023-03-06T20:06:31.357Z,11.97
2023-03-06T20:08:58.064Z,11.91
2023-03-06T20:11:27.992Z,11.82
2023-03-06T20:13:54.715Z,11.76
2023-03-06T20:16:21.301Z,11.69
2023-03-06T20:18:50.196Z,11.65
2023-03-06T20:21:17.023Z,11.57
2023-03-06T20:23:46.157Z,11.51
2023-03-06T20:26:14.302Z,11.47
2023-03-06T20:28:41.914Z,11.42
2023-03-06T20:31:17.192Z,11.40
2023-03-06T20:33:45.174Z,11.36
2023-03-06T20:36:13.231Z,11.30
2023-03-06T20:38:40.039Z,11.25
2023-03-06T20:41:09.372Z,11.22
2023-03-06T20:43:36.062Z,11.20
2023-03-06T20:46:04.175Z,11.15
2023-03-06T20:48:30.860Z,11.10
2023-03-06T20:51:06.149Z,11.05
2023-03-06T20:53:35.568Z,11.02
2023-03-06T20:56:02.572Z,11.01
2023-03-06T20:58:32.573Z,10.95
2023-03-06T21:01:02.002Z,10.90
2023-03-06T21:03:29.334Z,10.89
2023-03-06T21:05:56.945Z,10.85
2023-03-06T21:08:26.081Z,10.79
2023-03-06T21:10:55.806Z,10.73
2023-03-06T21:13:22.631Z,10.76
2023-03-06T21:15:52.617Z,10.78
2023-03-06T21:18:31.444Z,10.81
2023-03-06T21:20:58.222Z,10.81
2023-03-06T21:23:25.054Z,10.82
2023-03-06T21:25:52.886Z,10.80
2023-03-06T21:28:26.225Z,10.83
2023-03-06T21:30:52.870Z,10.83
2023-03-06T21:33:27.116Z,10.86
2023-03-06T21:35:59.227Z,10.89
2023-03-06T21:38:26.055Z,10.89
2023-03-06T21:40:52.731Z,10.88
2023-03-06T21:43:21.127Z,10.84
2023-03-06T21:45:49.782Z,10.75
2023-03-06T21:48:17.408Z,10.69
2023-03-06T21:50:44.336Z,10.65
2023-03-06T21:53:11.144Z,10.64
2023-03-06T21:55:46.658Z,10.63
2023-03-06T21:58:13.529Z,10.64
2023-03-06T22:00:40.796Z,10.60
2023-03-06T22:03:09.943Z,10.56
2023-03-06T22:05:36.603Z,10.52
2023-03-06T22:08:05.256Z,10.47
2023-03-06T22:10:31.789Z,10.45
2023-03-06T22:12:58.359Z,10.41
2023-03-06T22:15:27.823Z,10.36
2023-03-06T22:17:58.400Z,10.31
2023-03-06T22:20:25.174Z,10.27
2023-03-06T22:22:51.822Z,10.24
2023-03-06T22:25:18.643Z,10.21
2023-03-06T22:27:45.822Z,10.21
2023-03-06T22:30:13.279Z,10.19
2023-03-06T22:32:40.004Z,10.22
2023-03-06T22:35:13.400Z,10.23
2023-03-06T22:37:42.879Z,10.25
2023-03-06T22:40:10.666Z,10.29
2023-03-06T22:42:37.376Z,10.32
2023-03-06T22:45:04.586Z,10.35
2023-03-06T22:47:31.177Z,10.36
2023-03-06T22:49:57.985Z,10.40
2023-03-06T22:52:27.651Z,10.43
2023-03-06T22:54:57.880Z,10.44
2023-03-06T22:57:24.605Z,10.40
2023-03-06T22:59:51.381Z,10.40
2023-03-06T23:02:27.189Z,10.37
2023-03-06T23:04:53.893Z,10.35
2023-03-06T23:07:23.700Z,10.38
2023-03-06T23:09:53.714Z,10.40
2023-03-06T23:12:20.349Z,10.35
2023-03-06T23:14:49.747Z,10.32
2023-03-06T23:17:19.378Z,10.32
2023-03-06T23:19:49.329Z,10.32
2023-03-06T23:22:16.151Z,10.28
2023-03-06T23:24:42.963Z,10.26
2023-03-06T23:27:09.776Z,10.22
2023-03-06T23:29:37.482Z,10.19
2023-03-06T23:32:04.500Z,10.15
2023-03-06T23:34:31.068Z,10.12
2023-03-06T23:36:57.634Z,10.14
2023-03-06T23:39:24.164Z,10.20
2023-03-06T23:41:50.698Z,10.16
2023-03-06T23:44:17.318Z,10.12
2023-03-06T23:46:43.845Z,10.10
2023-03-06T23:49:10.828Z,10.16
2023-03-06T23:51:37.405Z,10.18
2023-03-06T23:54:04.101Z,10.12
2023-03-06T23:56:30.592Z,10.11
2023-03-06T23:58:57.204Z,10.10
